• Join FlightAware (Why Join?)
  • Login
  • US Flag 
03:13PM EDT


 

Airport Tracker/Info


-or-


 

Live Flight TrackerFlight Track Log ✈ KAP131 ✈ 18-Aug-2013 ✈ KBOS - KACK

Flight Track Log - Related Links

Times and Time Zones

All times are in EDT time to prevent confusion due to time zone crossing. See the KAP131 flight status page for this flight to view local times or setup timezone preferences in your user account.

Time Position Orientation Groundspeed Altitude Reporting Facility
EDT Latitude Longitude Course Direction KTS MPH feet Rate Location/Type
02:27PM 42.3500 -70.9833 124° Southeast 95 109 400  Level KA90
02:28PM 42.3333 -70.9500 124° Southeast 126 145 1,300 900 Climbing KA90
02:29PM 42.3167 -70.9000 114° Southeast 131 151 2,300 660 Climbing KA90
02:30PM 42.2833 -70.8833 160° South 125 144 2,800 420 Climbing KA90
02:31PM 42.2667 -70.8667 143° Southeast 125 144 3,200 420 Climbing KA90
02:32PM 42.2333 -70.8333 143° Southeast 130 150 3,700 540 Climbing KA90
02:33PM 42.2000 -70.8167 160° South 135 155 4,300 540 Climbing KA90
02:34PM 42.1667 -70.7833 143° Southeast 136 157 4,800 480 Climbing KA90
02:36PM 42.1129 -70.7401 116° Southeast  Level Estimated
02:43PM 41.8670 -70.5435 114° Southeast  Level Estimated
02:44PM 41.8821 -70.4925 68° East  Level FlightAware Approximate
02:45PM 41.8972 -70.4415 68° East  Level FlightAware Approximate
02:46PM 41.9122 -70.3904 68° East  Level FlightAware Approximate
02:47PM 41.9272 -70.3394 68° East  Level FlightAware Approximate
02:48PM 41.9422 -70.2883 68° East  Level FlightAware Approximate
02:49PM 41.9026 -70.2750 180° South  Level Estimated
02:50PM 41.8675 -70.2469 149° Southeast  Level FlightAware Approximate
02:51PM 41.8324 -70.2188 149° Southeast  Level FlightAware Approximate
02:52PM 41.7974 -70.1907 149° Southeast  Level FlightAware Approximate
02:53PM 41.7623 -70.1626 149° Southeast  Level FlightAware Approximate
02:54PM 41.7272 -70.1346 149° Southeast  Level FlightAware Approximate
02:55PM 41.6921 -70.1066 149° Southeast  Level FlightAware Approximate
02:56PM 41.6570 -70.0786 149° Southeast  Level FlightAware Approximate
02:57PM 41.6218 -70.0507 149° Southeast  Level FlightAware Approximate
02:58PM 41.5867 -70.0228 149° Southeast  Level FlightAware Approximate
02:59PM 41.5840 -70.0365 189° South  Level FlightAware Approximate
03:00PM 41.5436 -70.0446 189° South  Level FlightAware Approximate
03:01PM 41.5030 -70.0500 180° South  Level FlightAware Approximate
03:02PM 41.4622 -70.0500 180° South  Level FlightAware Approximate
03:03PM 41.4213 -70.0500 180° South  Level FlightAware Approximate
03:04PM 41.3805 -70.0500 180° South  Level FlightAware Approximate
03:05PM 41.3396 -70.0500 180° South  Level FlightAware Approximate
03:06PM 41.2987 -70.0500 180° South  Level FlightAware Approximate
03:07PM 41.2579 -70.0500 180° South  Level FlightAware Approximate
03:08PM 41.2500 -70.0500 180° South  Level FlightAware Approximate